createdAt,value
2023-03-20T00:01:13.896Z,19.10
2023-03-20T00:06:26.394Z,23.30
2023-03-20T00:11:29.250Z,21.03
2023-03-20T00:16:33.483Z,19.37
2023-03-20T00:21:35.557Z,20.27
2023-03-20T00:26:38.276Z,17.43
2023-03-20T00:31:40.054Z,17.73
2023-03-20T00:36:41.958Z,19.50
2023-03-20T00:41:48.961Z,19.90
2023-03-20T00:47:02.140Z,19.10
2023-03-20T00:52:04.863Z,18.80
2023-03-20T00:57:08.553Z,21.00
2023-03-20T01:02:11.679Z,19.73
2023-03-20T01:07:14.593Z,20.63
2023-03-20T01:12:16.474Z,22.63
2023-03-20T01:17:20.449Z,22.63
2023-03-20T01:22:22.094Z,22.00
2023-03-20T01:27:23.794Z,22.70
2023-03-20T01:32:25.398Z,23.10
2023-03-20T01:37:28.239Z,19.97
2023-03-20T01:42:34.643Z,20.83
2023-03-20T01:47:36.418Z,20.13
2023-03-20T01:52:38.127Z,22.30
2023-03-20T01:57:41.221Z,18.23
2023-03-20T02:02:47.947Z,19.90
2023-03-20T02:08:24.423Z,20.50
2023-03-20T02:13:27.923Z,19.70
2023-03-20T02:18:30.713Z,20.40
2023-03-20T02:24:13.412Z,16.37
2023-03-20T02:29:30.337Z,21.50
2023-03-20T02:34:46.910Z,18.53
2023-03-20T02:40:00.802Z,21.40
2023-03-20T02:45:20.686Z,17.67
2023-03-20T02:50:36.735Z,21.30
2023-03-20T02:55:54.592Z,19.40
2023-03-20T03:01:15.511Z,18.17
2023-03-20T03:06:23.108Z,17.13
2023-03-20T03:11:24.709Z,19.70
2023-03-20T03:16:32.459Z,18.03
2023-03-20T03:21:35.426Z,16.80
2023-03-20T03:26:39.614Z,15.80
2023-03-20T03:31:42.578Z,15.03
2023-03-20T03:36:51.612Z,18.03
2023-03-20T03:42:17.683Z,14.93
2023-03-20T03:47:23.110Z,17.23
2023-03-20T03:52:26.185Z,14.50
2023-03-20T03:57:35.024Z,16.03
2023-03-20T04:02:38.037Z,15.27
2023-03-20T04:07:40.310Z,13.37
2023-03-20T04:12:44.109Z,16.23
2023-03-20T04:17:46.198Z,14.17
2023-03-20T04:22:49.100Z,13.57
2023-03-20T04:27:52.618Z,13.67
2023-03-20T04:33:10.948Z,13.87
2023-03-20T04:38:26.971Z,14.53
2023-03-20T04:43:30.006Z,13.73
2023-03-20T04:48:34.678Z,14.63
2023-03-20T04:53:36.827Z,15.33
2023-03-20T04:58:39.055Z,11.80
2023-03-20T05:03:41.794Z,13.43
2023-03-20T05:08:43.744Z,12.17
2023-03-20T05:13:46.122Z,13.87
2023-03-20T05:19:13.882Z,13.83
2023-03-20T05:24:34.118Z,15.10
2023-03-20T05:30:01.998Z,13.13
2023-03-20T05:35:22.490Z,12.03
2023-03-20T05:40:28.544Z,14.53
2023-03-20T05:45:50.710Z,12.60
2023-03-20T05:51:12.602Z,13.17
2023-03-20T05:56:28.560Z,15.43
2023-03-20T06:01:56.285Z,18.55
2023-03-20T06:07:01.254Z,15.40
2023-03-20T06:12:03.724Z,14.67
2023-03-20T06:17:06.184Z,14.43
2023-03-20T06:22:08.341Z,13.97
2023-03-20T06:27:10.014Z,12.40
2023-03-20T06:32:14.802Z,10.80
2023-03-20T06:37:16.857Z,13.50
2023-03-20T06:42:18.627Z,14.00
2023-03-20T06:47:29.874Z,13.73
2023-03-20T06:52:31.783Z,12.93
2023-03-20T06:57:55.977Z,15.07
2023-03-20T07:02:59.870Z,11.67
2023-03-20T07:08:03.064Z,12.20
2023-03-20T07:13:04.764Z,13.00
2023-03-20T07:18:07.645Z,11.47
2023-03-20T07:23:09.623Z,12.83
2023-03-20T07:28:11.807Z,11.83
2023-03-20T07:33:17.516Z,11.47
2023-03-20T07:38:21.056Z,11.37
2023-03-20T07:43:33.342Z,10.47
2023-03-20T07:48:41.127Z,8.80
2023-03-20T07:53:44.208Z,10.77
2023-03-20T07:58:46.251Z,10.47
2023-03-20T08:03:48.413Z,10.00
2023-03-20T08:08:52.500Z,10.33
2023-03-20T08:13:54.184Z,9.60
2023-03-20T08:19:01.186Z,7.40
2023-03-20T08:24:02.967Z,8.77
2023-03-20T08:29:04.711Z,7.47
2023-03-20T08:34:06.456Z,7.53
2023-03-20T08:39:08.429Z,8.27
2023-03-20T08:44:09.982Z,7.00
2023-03-20T08:49:11.757Z,6.07
2023-03-20T08:54:15.043Z,6.43
2023-03-20T08:59:16.785Z,7.43
2023-03-20T09:04:18.870Z,7.70
2023-03-20T09:09:21.762Z,5.47
2023-03-20T09:14:24.493Z,5.37
2023-03-20T09:19:26.359Z,7.30
2023-03-20T09:24:29.277Z,3.80
2023-03-20T09:29:30.941Z,4.93
2023-03-20T09:34:32.566Z,3.93
2023-03-20T09:39:35.190Z,3.33
2023-03-20T09:44:51.647Z,3.93
2023-03-20T09:49:56.280Z,4.00
2023-03-20T09:55:01.324Z,3.67
2023-03-20T10:00:07.439Z,3.37
2023-03-20T10:05:21.931Z,4.27
2023-03-20T10:11:01.248Z,5.17
2023-03-20T10:16:32.203Z,3.17
2023-03-20T10:21:43.725Z,10.60
2023-03-20T10:26:47.000Z,4.20
2023-03-20T10:32:06.051Z,3.90
2023-03-20T10:37:25.868Z,3.40
2023-03-20T10:42:34.448Z,3.67
2023-03-20T10:47:39.215Z,4.20
2023-03-20T10:52:41.761Z,2.90
2023-03-20T10:57:48.371Z,5.53
2023-03-20T11:02:50.279Z,3.63
2023-03-20T11:08:02.171Z,2.97
2023-03-20T11:13:19.397Z,3.57
2023-03-20T11:18:24.809Z,3.80
2023-03-20T11:23:31.262Z,5.77
2023-03-20T11:28:40.725Z,3.23
2023-03-20T11:34:06.559Z,3.30
2023-03-20T11:39:14.509Z,3.87
2023-03-20T11:44:29.265Z,3.67
2023-03-20T11:49:32.894Z,3.53
2023-03-20T11:54:34.628Z,2.63
2023-03-20T11:59:37.286Z,2.60
2023-03-20T12:04:42.987Z,2.67
2023-03-20T12:10:07.157Z,2.83
2023-03-20T12:15:17.574Z,3.77
2023-03-20T12:20:47.467Z,2.37
2023-03-20T12:25:58.269Z,2.10
2023-03-20T12:31:14.214Z,2.00
2023-03-20T12:36:18.698Z,2.20
2023-03-20T12:41:36.110Z,2.43
2023-03-20T12:46:44.617Z,1.87
2023-03-20T12:51:46.315Z,2.60
2023-03-20T12:56:57.972Z,2.53
2023-03-20T13:02:35.645Z,3.07
2023-03-20T13:07:37.375Z,1.87
2023-03-20T13:12:54.119Z,1.77
2023-03-20T13:18:15.092Z,1.90
2023-03-20T13:23:27.516Z,2.47
2023-03-20T13:28:56.231Z,3.57
2023-03-20T13:34:04.571Z,1.20
2023-03-20T13:39:13.149Z,3.40
2023-03-20T13:44:17.037Z,1.93
2023-03-20T13:49:38.660Z,1.70
2023-03-20T13:54:59.306Z,1.63
2023-03-20T14:00:01.026Z,1.50
2023-03-20T14:05:23.059Z,1.53
2023-03-20T14:10:24.613Z,1.70
2023-03-20T14:15:34.684Z,3.03
2023-03-20T14:20:40.955Z,1.70
2023-03-20T14:25:46.485Z,3.77
2023-03-20T14:30:50.764Z,3.53
2023-03-20T14:36:21.643Z,3.10
2023-03-20T14:41:35.793Z,1.63
2023-03-20T14:46:51.937Z,2.17
2023-03-20T14:52:00.604Z,2.87
2023-03-20T14:57:20.571Z,2.47
2023-03-20T15:02:27.486Z,1.07
2023-03-20T15:07:31.442Z,2.90
2023-03-20T15:12:35.645Z,2.00
2023-03-20T15:17:44.981Z,2.87
2023-03-20T15:22:48.649Z,1.80
2023-03-20T15:27:51.854Z,3.20
2023-03-20T15:32:54.381Z,2.77
2023-03-20T15:37:57.483Z,3.90
2023-03-20T15:43:01.365Z,3.23
2023-03-20T15:48:07.422Z,2.93
2023-03-20T15:53:11.360Z,2.00
2023-03-20T15:58:14.264Z,2.73
2023-03-20T16:03:19.246Z,3.97
2023-03-20T16:08:27.028Z,12.37
2023-03-20T16:13:48.906Z,2.90
2023-03-20T16:18:50.978Z,1.60
2023-03-20T16:23:54.751Z,3.93
2023-03-20T16:28:59.015Z,2.97
2023-03-20T16:34:08.808Z,3.20
2023-03-20T16:39:19.535Z,3.97
2023-03-20T16:44:25.522Z,2.20
2023-03-20T16:49:29.575Z,3.60
2023-03-20T16:54:35.118Z,2.87
2023-03-20T16:59:45.760Z,3.83
2023-03-20T17:04:47.855Z,3.60
2023-03-20T17:10:16.824Z,2.80
2023-03-20T17:15:24.740Z,1.90
2023-03-20T17:20:30.877Z,4.13
2023-03-20T17:25:32.496Z,3.70
2023-03-20T17:30:34.196Z,1.93
2023-03-20T17:35:36.124Z,5.13
2023-03-20T17:40:38.196Z,4.17
2023-03-20T17:45:40.472Z,1.97
2023-03-20T17:50:44.479Z,4.03
2023-03-20T17:55:46.415Z,2.63
2023-03-20T18:00:49.758Z,3.77
2023-03-20T18:05:51.828Z,3.53
2023-03-20T18:10:54.610Z,3.13
2023-03-20T18:15:58.131Z,3.80
2023-03-20T18:20:59.774Z,4.13
2023-03-20T18:26:01.509Z,2.67
2023-03-20T18:31:03.271Z,3.37
2023-03-20T18:36:05.474Z,5.20
2023-03-20T18:41:07.223Z,2.27
2023-03-20T18:46:20.772Z,2.67
2023-03-20T18:51:22.431Z,3.93
2023-03-20T18:56:25.923Z,1.97
2023-03-20T19:01:27.647Z,5.10
2023-03-20T19:06:32.467Z,2.13
2023-03-20T19:11:34.102Z,2.77
2023-03-20T19:16:38.088Z,1.90
2023-03-20T19:21:40.176Z,4.67
2023-03-20T19:26:42.114Z,2.77
2023-03-20T19:31:44.066Z,2.23
2023-03-20T19:36:48.647Z,3.80
2023-03-20T19:41:51.728Z,5.97
2023-03-20T19:46:53.433Z,2.10
2023-03-20T19:51:55.033Z,2.37
2023-03-20T19:56:58.801Z,3.03
2023-03-20T20:02:00.673Z,4.83
2023-03-20T20:07:47.557Z,6.00
2023-03-20T20:12:23.919Z,3.23
2023-03-20T20:17:25.516Z,2.80
2023-03-20T20:22:27.707Z,4.90
2023-03-20T20:27:31.673Z,2.87
2023-03-20T20:32:35.827Z,2.70
2023-03-20T20:43:10.036Z,3.10
2023-03-20T20:48:12.576Z,2.57
2023-03-20T20:53:14.321Z,2.40
2023-03-20T20:58:16.122Z,2.93
2023-03-20T21:03:17.770Z,3.73
2023-03-20T21:08:19.352Z,2.53
2023-03-20T21:13:21.796Z,3.20
2023-03-20T21:18:23.416Z,2.93
2023-03-20T21:23:26.020Z,2.00
2023-03-20T21:28:28.153Z,1.60
2023-03-20T21:33:34.844Z,1.77
2023-03-20T21:44:01.154Z,2.30
2023-03-20T21:55:05.903Z,2.17
2023-03-20T22:05:48.711Z,3.37
2023-03-20T22:16:41.014Z,2.73
2023-03-20T22:27:26.832Z,3.33
2023-03-20T22:38:21.829Z,4.00
2023-03-20T22:43:26.533Z,2.80
2023-03-20T22:48:06.170Z,2.77
2023-03-20T22:53:08.008Z,3.63
2023-03-20T22:58:10.584Z,2.77
2023-03-20T23:03:33.452Z,2.63
2023-03-20T23:08:42.409Z,3.10
2023-03-20T23:13:49.849Z,4.17
2023-03-20T23:18:51.752Z,2.63
2023-03-20T23:23:53.586Z,3.50
2023-03-20T23:28:55.141Z,4.20
2023-03-20T23:33:57.883Z,2.63
2023-03-20T23:38:59.562Z,4.40
2023-03-20T23:44:01.926Z,2.40
2023-03-20T23:49:03.687Z,5.00
2023-03-20T23:54:05.229Z,4.40
2023-03-20T23:59:18.739Z,3.20
